Time;durP1;ratioP1;P1;durP2;ratioP2;P2;SDS_P1;SDS_P2;PMS_P1;PMS_P2;Temp;Humidity;BMP_temperature;BMP_pressure;BME280_temperature;BME280_humidity;BME280_pressure;Samples;Min_cycle;Max_cycle;Signal;HPM_P1;HPM_P2
2021/11/02 00:01:43;;;;;;;;;;;22.30;97.40;;;;;;5096140;28;19920;-78
2021/11/02 00:04:10;;;;;;;;;;;22.30;97.70;;;;;;5095828;28;19964;-74
2021/11/02 00:06:37;;;;;;;;;;;22.40;97.20;;;;;;5096409;28;20355;-78
2021/11/02 00:09:06;;;;;;;;;;;22.40;97.30;;;;;;5096004;28;19914;-79
2021/11/02 00:11:33;;;;;;;;;;;22.40;96.30;;;;;;5096079;28;19936;-79
2021/11/02 00:14:01;;;;;;;;;;;22.50;97.00;;;;;;5095847;28;19912;-78
2021/11/02 00:16:28;;;;;;;;;;;22.50;96.90;;;;;;5096375;28;19912;-79
2021/11/02 00:19:04;;;;;;;;;;;22.60;96.20;;;;;;5095665;28;20005;-76
2021/11/02 00:21:35;;;;;;;;;;;22.50;96.90;;;;;;5095622;28;19908;-78
2021/11/02 00:24:26;;;;;;;;;;;22.50;96.90;;;;;;5095449;28;19916;-76
2021/11/02 00:26:53;;;;;;;;;;;22.50;97.10;;;;;;5095684;28;20247;-79
2021/11/02 00:29:20;;;;;;;;;;;22.70;96.60;;;;;;5095667;28;19919;-79
2021/11/02 00:31:46;;;;;;;;;;;22.60;96.80;;;;;;5094467;28;19908;-78
2021/11/02 00:34:13;;;;;;;;;;;22.80;96.20;;;;;;5095283;28;19908;-78
2021/11/02 00:36:40;;;;;;;;;;;22.90;95.80;;;;;;5095661;28;19912;-78
2021/11/02 00:39:07;;;;;;;;;;;23.30;95.60;;;;;;5095700;28;19919;-77
2021/11/02 00:41:33;;;;;;;;;;;23.70;94.60;;;;;;5094619;28;19909;-78
2021/11/02 00:44:00;;;;;;;;;;;23.70;94.30;;;;;;5094642;28;19920;-77
2021/11/02 00:46:36;;;;;;;;;;;24.00;94.50;;;;;;5095287;28;19915;-78
2021/11/02 00:49:05;;;;;;;;;;;24.30;94.60;;;;;;5095243;28;19908;-77
2021/11/02 00:51:32;;;;;;;;;;;24.20;94.00;;;;;;5095523;28;19925;-76
2021/11/02 00:53:58;;;;;;;;;;;24.20;93.30;;;;;;5095094;28;19908;-74
2021/11/02 00:56:25;;;;;;;;;;;24.50;93.30;;;;;;5095169;28;19908;-77
2021/11/02 00:58:52;;;;;;;;;;;24.50;93.70;;;;;;5095237;28;19916;-77
2021/11/02 01:01:19;;;;;;;;;;;24.40;94.10;;;;;;5095078;28;19920;-77
2021/11/02 01:03:46;;;;;;;;;;;24.40;94.00;;;;;;5094954;28;20290;-77
2021/11/02 01:06:12;;;;;;;;;;;24.70;94.00;;;;;;5094920;28;20003;-77
2021/11/02 01:08:39;;;;;;;;;;;25.10;94.30;;;;;;5095097;28;20374;-78
2021/11/02 01:11:06;;;;;;;;;;;25.20;93.20;;;;;;5095023;28;19952;-78
2021/11/02 01:13:33;;;;;;;;;;;25.10;93.20;;;;;;5094849;28;19912;-76
2021/11/02 01:16:00;;;;;;;;;;;24.70;93.20;;;;;;5094534;28;20031;-78
2021/11/02 01:18:27;;;;;;;;;;;24.90;93.50;;;;;;5094789;28;19908;-75
2021/11/02 01:20:54;;;;;;;;;;;25.10;93.50;;;;;;5094940;28;19924;-77
2021/11/02 01:23:20;;;;;;;;;;;25.10;93.40;;;;;;5095116;28;19916;-78
2021/11/02 01:25:47;;;;;;;;;;;25.40;93.40;;;;;;5094461;28;19908;-78
2021/11/02 01:28:14;;;;;;;;;;;25.30;93.10;;;;;;5094461;28;19912;-77
2021/11/02 01:30:41;;;;;;;;;;;25.00;93.00;;;;;;5094697;28;19912;-78
2021/11/02 01:33:07;;;;;;;;;;;24.60;93.30;;;;;;5094344;28;19912;-75
2021/11/02 01:35:34;;;;;;;;;;;24.30;94.10;;;;;;5094451;28;20258;-77
2021/11/02 01:38:04;;;;;;;;;;;24.20;93.70;;;;;;5094088;28;20350;-77
2021/11/02 01:40:30;;;;;;;;;;;24.10;94.60;;;;;;5094837;28;19908;-76
2021/11/02 01:42:57;;;;;;;;;;;24.00;93.80;;;;;;5094497;28;19923;-77
2021/11/02 01:45:27;;;;;;;;;;;23.60;94.40;;;;;;5094264;28;19908;-76
2021/11/02 01:47:55;;;;;;;;;;;23.40;95.30;;;;;;5094281;28;19909;-77
2021/11/02 01:50:22;;;;;;;;;;;23.50;94.80;;;;;;5094157;28;19912;-78
2021/11/02 01:52:48;;;;;;;;;;;23.70;95.50;;;;;;5094212;28;19915;-74
2021/11/02 01:55:16;;;;;;;;;;;23.70;95.00;;;;;;5094165;28;19908;-76
2021/11/02 01:57:44;;;;;;;;;;;23.80;94.50;;;;;;5092864;28;19908;-77
2021/11/02 02:00:13;;;;;;;;;;;23.70;95.10;;;;;;5093657;28;19912;-76
2021/11/02 02:02:39;;;;;;;;;;;23.80;94.00;;;;;;5094041;28;19931;-77
2021/11/02 02:05:06;;;;;;;;;;;23.80;93.90;;;;;;5094185;28;20252;-75
2021/11/02 02:07:33;;;;;;;;;;;23.60;94.30;;;;;;5093936;28;20010;-74
2021/11/02 02:10:09;;;;;;;;;;;23.70;93.50;;;;;;5093869;28;19947;-78
2021/11/02 02:12:43;;;;;;;;;;;23.50;94.30;;;;;;5093757;28;19915;-74
2021/11/02 02:15:18;;;;;;;;;;;23.30;94.60;;;;;;5093635;28;19908;-76
2021/11/02 02:18:03;;;;;;;;;;;23.20;95.40;;;;;;5093510;28;19984;-75
2021/11/02 02:20:32;;;;;;;;;;;23.40;95.00;;;;;;5093985;28;20026;-76
2021/11/02 02:23:02;;;;;;;;;;;23.60;95.10;;;;;;5092202;28;20325;-76
2021/11/02 02:26:04;;;;;;;;;;;23.50;94.60;;;;;;5093649;28;19923;-77
2021/11/02 02:28:38;;;;;;;;;;;23.50;94.80;;;;;;5051404;28;19912;-77
2021/11/02 02:31:06;;;;;;;;;;;23.30;95.70;;;;;;5087104;28;19908;-73
2021/11/02 02:33:42;;;;;;;;;;;23.40;95.30;;;;;;5093341;28;20431;-76
2021/11/02 02:36:10;;;;;;;;;;;23.40;94.50;;;;;;5093057;28;19908;-76
2021/11/02 02:38:39;;;;;;;;;;;23.30;94.40;;;;;;5093433;28;19944;-74
2021/11/02 02:41:07;;;;;;;;;;;23.30;94.00;;;;;;5093448;28;20369;-76
2021/11/02 02:43:38;;;;;;;;;;;23.30;94.60;;;;;;5093406;28;20318;-76
2021/11/02 02:46:05;;;;;;;;;;;23.40;93.60;;;;;;5092910;28;19947;-74
2021/11/02 02:48:32;;;;;;;;;;;23.40;93.70;;;;;;5092952;28;20274;-76
2021/11/02 02:51:01;;;;;;;;;;;23.30;93.70;;;;;;5092961;28;19952;-73
2021/11/02 02:53:27;;;;;;;;;;;23.40;93.70;;;;;;5092408;28;19916;-75
2021/11/02 02:55:58;;;;;;;;;;;23.30;93.60;;;;;;5092731;28;19956;-77
2021/11/02 02:58:25;;;;;;;;;;;23.30;93.70;;;;;;5092726;28;19915;-76
2021/11/02 03:00:52;;;;;;;;;;;23.50;93.20;;;;;;5092829;28;19960;-77
2021/11/02 03:03:21;;;;;;;;;;;23.50;92.80;;;;;;5091397;28;20357;-77
2021/11/02 03:05:49;;;;;;;;;;;23.40;93.30;;;;;;5092061;28;19909;-76
2021/11/02 03:08:17;;;;;;;;;;;23.40;93.50;;;;;;5092576;28;19908;-78
2021/11/02 03:10:44;;;;;;;;;;;23.40;93.50;;;;;;5092725;28;19908;-76
2021/11/02 03:13:13;;;;;;;;;;;23.40;93.90;;;;;;5092623;28;19908;-77
2021/11/02 03:56:31;;;;;;;;;;;22.70;98.70;;;;;;5092575;28;19961;-78
2021/11/02 03:59:37;;;;;;;;;;;22.70;99.10;;;;;;5092301;28;19912;-78
2021/11/02 04:32:59;;;;;;;;;;;22.50;98.40;;;;;;5095368;28;19959;-79
2021/11/02 04:35:20;;;;;;;;;;;22.50;97.80;;;;;;5095462;28;19965;-77
2021/11/02 05:08:08;;;;;;;;;;;22.30;96.40;;;;;;5095177;28;19919;-76
2021/11/02 05:13:32;;;;;;;;;;;22.60;96.40;;;;;;5094960;28;19937;-79
2021/11/02 05:49:16;;;;;;;;;;;21.90;99.90;;;;;;5094806;28;19977;-77
2021/11/02 05:57:22;;;;;;;;;;;21.80;99.90;;;;;;5092226;28;19919;-76
2021/11/02 06:00:12;;;;;;;;;;;21.80;99.90;;;;;;5091767;28;19919;-78
2021/11/02 06:28:02;;;;;;;;;;;21.30;99.90;;;;;;5091418;28;19915;-73
2021/11/02 06:33:24;;;;;;;;;;;21.10;99.90;;;;;;5091721;28;19912;-79
2021/11/02 06:46:57;;;;;;;;;;;21.00;99.90;;;;;;5090797;28;19909;-77
2021/11/02 07:19:43;;;;;;;;;;;20.50;99.90;;;;;;5090560;28;19963;-77
2021/11/02 08:45:17;;;;;;;;;;;19.70;99.90;;;;;;5075514;28;20397;-74
2021/11/02 08:47:47;;;;;;;;;;;19.70;99.90;;;;;;5075682;28;19908;-74
2021/11/02 08:50:18;;;;;;;;;;;19.70;99.90;;;;;;5075191;28;19940;-78
2021/11/02 08:52:50;;;;;;;;;;;19.70;99.90;;;;;;5075750;28;19954;-75
2021/11/02 08:55:18;;;;;;;;;;;19.70;99.90;;;;;;5075529;28;19909;-74
2021/11/02 08:57:52;;;;;;;;;;;19.70;99.90;;;;;;5075359;28;19908;-76
2021/11/02 09:00:19;;;;;;;;;;;19.70;99.90;;;;;;5075255;28;19909;-76
2021/11/02 09:02:51;;;;;;;;;;;19.60;99.90;;;;;;5074783;28;19918;-77
2021/11/02 09:05:24;;;;;;;;;;;19.60;99.90;;;;;;5075325;28;19936;-76
2021/11/02 09:07:54;;;;;;;;;;;19.60;99.90;;;;;;5074973;28;19908;-78
2021/11/02 09:10:21;;;;;;;;;;;19.60;99.90;;;;;;5074882;28;20273;-77
2021/11/02 09:12:53;;;;;;;;;;;19.60;99.90;;;;;;5075461;28;19908;-77
2021/11/02 09:15:38;;;;;;;;;;;19.60;99.90;;;;;;5075093;28;20022;-77
2021/11/02 09:18:06;;;;;;;;;;;19.60;99.90;;;;;;5075679;28;19908;-74
2021/11/02 09:20:33;;;;;;;;;;;19.60;99.90;;;;;;5074888;28;19915;-76
2021/11/02 09:23:00;;;;;;;;;;;19.70;99.90;;;;;;5074208;28;20329;-77
2021/11/02 09:25:27;;;;;;;;;;;19.70;99.90;;;;;;5075454;28;20375;-75
2021/11/02 09:27:54;;;;;;;;;;;19.60;99.90;;;;;;5074889;28;19999;-78
2021/11/02 09:30:21;;;;;;;;;;;19.60;99.90;;;;;;5073758;28;19923;-78
2021/11/02 09:32:49;;;;;;;;;;;19.70;99.90;;;;;;5074641;28;19908;-77
2021/11/02 09:35:18;;;;;;;;;;;19.60;99.90;;;;;;5075727;28;19916;-75
2021/11/02 09:37:58;;;;;;;;;;;19.60;99.90;;;;;;5075431;28;20022;-77
2021/11/02 09:40:31;;;;;;;;;;;19.60;99.90;;;;;;5074982;28;19991;-75
2021/11/02 09:43:15;;;;;;;;;;;19.60;99.90;;;;;;5074762;28;19916;-77
2021/11/02 09:46:00;;;;;;;;;;;19.60;99.90;;;;;;5073983;28;20521;-79
2021/11/02 09:48:38;;;;;;;;;;;19.70;99.90;;;;;;5074625;28;20436;-77
2021/11/02 09:51:20;;;;;;;;;;;19.70;99.90;;;;;;5074421;28;19914;-75
2021/11/02 09:53:52;;;;;;;;;;;19.70;99.90;;;;;;5074678;28;19916;-77
2021/11/02 09:56:24;;;;;;;;;;;19.70;99.90;;;;;;5073902;28;19939;-77
2021/11/02 09:59:03;;;;;;;;;;;19.70;99.90;;;;;;5074745;28;19954;-77
2021/11/02 10:01:42;;;;;;;;;;;19.80;99.90;;;;;;5073685;28;19935;-79
2021/11/02 10:04:28;;;;;;;;;;;19.70;99.90;;;;;;5073606;28;19955;-78
2021/11/02 10:07:01;;;;;;;;;;;19.80;99.90;;;;;;5073998;28;19909;-79
2021/11/02 10:09:30;;;;;;;;;;;19.80;99.90;;;;;;5073690;28;19915;-79
2021/11/02 10:12:03;;;;;;;;;;;19.80;99.90;;;;;;5106120;28;19908;-78
2021/11/02 10:14:43;;;;;;;;;;;19.80;99.90;;;;;;5073428;28;19913;-77
2021/11/02 10:17:17;;;;;;;;;;;19.80;99.90;;;;;;5073981;28;19993;-77
2021/11/02 10:20:03;;;;;;;;;;;19.80;99.90;;;;;;5074421;28;20007;-78
2021/11/02 10:22:33;;;;;;;;;;;19.80;99.90;;;;;;5073539;28;19919;-78
2021/11/02 10:25:12;;;;;;;;;;;19.70;99.90;;;;;;5073776;28;20310;-74
2021/11/02 10:27:58;;;;;;;;;;;19.80;99.90;;;;;;5073625;28;19908;-78
2021/11/02 10:30:32;;;;;;;;;;;19.80;99.90;;;;;;5074333;28;19970;-78
2021/11/02 10:33:11;;;;;;;;;;;19.80;99.90;;;;;;5073598;28;19908;-79
2021/11/02 10:35:56;;;;;;;;;;;19.80;99.90;;;;;;5073775;28;19915;-79
2021/11/02 10:38:50;;;;;;;;;;;19.70;99.90;;;;;;5073564;28;19915;-78
2021/11/02 10:41:22;;;;;;;;;;;19.70;99.90;;;;;;5064270;28;19999;-75
2021/11/02 10:43:53;;;;;;;;;;;19.70;99.90;;;;;;5101530;28;19924;-76
2021/11/02 10:46:23;;;;;;;;;;;19.70;99.90;;;;;;5070735;28;19952;-74
2021/11/02 10:48:51;;;;;;;;;;;19.70;99.90;;;;;;5072468;28;19916;-77
2021/11/02 10:51:18;;;;;;;;;;;19.60;99.90;;;;;;5071034;28;19934;-75
2021/11/02 10:53:52;;;;;;;;;;;19.70;99.90;;;;;;5071074;28;19912;-77
2021/11/02 10:56:34;;;;;;;;;;;19.60;99.90;;;;;;5069653;28;19931;-78
2021/11/02 10:59:02;;;;;;;;;;;19.60;99.90;;;;;;5070719;28;19962;-75
2021/11/02 11:01:30;;;;;;;;;;;19.50;99.90;;;;;;5070138;28;20317;-77
2021/11/02 11:04:00;;;;;;;;;;;19.50;99.90;;;;;;5070733;28;19916;-79
2021/11/02 11:06:27;;;;;;;;;;;19.50;99.90;;;;;;5071105;28;19909;-78
2021/11/02 11:08:55;;;;;;;;;;;19.50;99.90;;;;;;5070519;28;20339;-77
2021/11/02 11:11:27;;;;;;;;;;;19.60;99.90;;;;;;5071397;28;19965;-77
2021/11/02 11:13:56;;;;;;;;;;;19.50;99.90;;;;;;5071031;28;19908;-79
2021/11/02 11:16:25;;;;;;;;;;;19.40;99.90;;;;;;5071876;28;19912;-75
2021/11/02 11:19:07;;;;;;;;;;;19.30;99.90;;;;;;5071268;28;19954;-79
2021/11/02 11:21:35;;;;;;;;;;;19.20;99.90;;;;;;5070922;28;19909;-80
2021/11/02 11:24:17;;;;;;;;;;;19.20;99.90;;;;;;5070402;28;19917;-77
2021/11/02 11:26:48;;;;;;;;;;;19.20;99.90;;;;;;5070096;28;19908;-79
2021/11/02 11:29:19;;;;;;;;;;;19.30;99.90;;;;;;5070810;28;19923;-77
2021/11/02 11:31:47;;;;;;;;;;;19.30;99.90;;;;;;5071065;28;19915;-79
2021/11/02 11:34:14;;;;;;;;;;;19.30;99.90;;;;;;5070123;28;19969;-79
2021/11/02 11:36:45;;;;;;;;;;;19.30;99.90;;;;;;5070998;28;19909;-75
2021/11/02 11:39:16;;;;;;;;;;;19.30;99.90;;;;;;5070864;28;19913;-78
2021/11/02 11:41:45;;;;;;;;;;;19.30;99.90;;;;;;5070393;28;20562;-79
2021/11/02 11:44:13;;;;;;;;;;;19.30;99.90;;;;;;5070096;28;19920;-80
2021/11/02 11:46:41;;;;;;;;;;;19.30;99.90;;;;;;5070456;28;19920;-79
2021/11/02 11:49:07;;;;;;;;;;;19.30;99.90;;;;;;5070701;28;19909;-77
2021/11/02 11:51:36;;;;;;;;;;;19.30;99.90;;;;;;5071183;28;20027;-79
2021/11/02 11:54:06;;;;;;;;;;;19.30;99.90;;;;;;5070513;28;20231;-78
2021/11/02 11:56:36;;;;;;;;;;;19.30;99.90;;;;;;5070783;28;20006;-79
2021/11/02 11:59:04;;;;;;;;;;;19.30;99.90;;;;;;5070974;28;19919;-79
2021/11/02 12:01:34;;;;;;;;;;;19.30;99.90;;;;;;5070073;28;19983;-79
2021/11/02 12:04:11;;;;;;;;;;;19.20;99.90;;;;;;5070021;28;19920;-78
2021/11/02 12:06:49;;;;;;;;;;;19.30;99.90;;;;;;5070544;28;20342;-78
2021/11/02 12:09:20;;;;;;;;;;;19.20;99.90;;;;;;5070137;28;20367;-75
2021/11/02 12:11:47;;;;;;;;;;;19.20;99.90;;;;;;5070328;28;19909;-77
2021/11/02 12:14:21;;;;;;;;;;;19.20;99.90;;;;;;5070341;28;19927;-78
2021/11/02 12:16:50;;;;;;;;;;;19.20;99.90;;;;;;5070072;28;19909;-79
2021/11/02 12:19:19;;;;;;;;;;;19.10;99.90;;;;;;5070573;28;20418;-78
2021/11/02 12:21:51;;;;;;;;;;;19.10;99.90;;;;;;5070842;28;19916;-77
2021/11/02 12:24:20;;;;;;;;;;;19.20;99.90;;;;;;5070405;28;19928;-79
2021/11/02 12:26:48;;;;;;;;;;;19.10;99.90;;;;;;5070258;28;20409;-77
2021/11/02 12:29:22;;;;;;;;;;;19.10;99.90;;;;;;5070233;28;20385;-76
2021/11/02 12:31:57;;;;;;;;;;;19.10;99.90;;;;;;5070960;28;19955;-76
2021/11/02 12:34:24;;;;;;;;;;;19.10;99.90;;;;;;5070150;28;19908;-78
2021/11/02 12:36:53;;;;;;;;;;;19.10;99.90;;;;;;5070386;28;19908;-77
2021/11/02 12:39:24;;;;;;;;;;;19.10;99.90;;;;;;5072387;28;19920;-77
2021/11/02 12:41:52;;;;;;;;;;;19.10;99.90;;;;;;5073830;28;19915;-77
2021/11/02 12:44:28;;;;;;;;;;;19.10;99.90;;;;;;5073429;28;19928;-77
2021/11/02 12:46:55;;;;;;;;;;;19.00;99.90;;;;;;5073772;28;19908;-77
2021/11/02 12:49:27;;;;;;;;;;;19.00;99.90;;;;;;5073857;28;19908;-79
2021/11/02 12:51:56;;;;;;;;;;;19.00;99.90;;;;;;5073738;28;19916;-79
2021/11/02 12:54:25;;;;;;;;;;;19.00;99.90;;;;;;5073278;28;19908;-80
2021/11/02 12:56:57;;;;;;;;;;;19.00;99.90;;;;;;5073599;28;19962;-79
2021/11/02 12:59:26;;;;;;;;;;;19.00;99.90;;;;;;5073236;28;19909;-78
2021/11/02 13:01:53;;;;;;;;;;;19.00;99.90;;;;;;5073282;28;19940;-77
2021/11/02 13:04:21;;;;;;;;;;;18.90;99.90;;;;;;5072985;28;19924;-78
2021/11/02 13:06:50;;;;;;;;;;;18.90;99.90;;;;;;5071749;28;19981;-78
2021/11/02 13:09:18;;;;;;;;;;;18.90;99.90;;;;;;5073446;28;19977;-79
2021/11/02 13:11:47;;;;;;;;;;;18.90;99.90;;;;;;5072947;28;19909;-78
2021/11/02 13:14:16;;;;;;;;;;;18.90;99.90;;;;;;5072936;28;19912;-80
2021/11/02 13:16:59;;;;;;;;;;;18.80;99.90;;;;;;5073070;28;19931;-77
2021/11/02 13:19:35;;;;;;;;;;;18.90;99.90;;;;;;5072673;28;19912;-78
2021/11/02 13:22:21;;;;;;;;;;;18.80;99.90;;;;;;5072764;28;20277;-75
2021/11/02 13:25:06;;;;;;;;;;;18.80;99.90;;;;;;5072693;28;20337;-75
2021/11/02 13:27:36;;;;;;;;;;;18.80;99.90;;;;;;5073053;28;19909;-76
2021/11/02 13:30:22;;;;;;;;;;;18.80;99.90;;;;;;5072756;28;20067;-80
2021/11/02 13:32:58;;;;;;;;;;;18.80;99.90;;;;;;5072418;28;19909;-77
2021/11/02 13:35:57;;;;;;;;;;;18.70;99.90;;;;;;5072550;28;19908;-78
2021/11/02 13:38:28;;;;;;;;;;;18.80;99.90;;;;;;5060265;28;20277;-78
2021/11/02 13:41:04;;;;;;;;;;;18.80;99.90;;;;;;5073214;28;19915;-76
2021/11/02 13:43:38;;;;;;;;;;;18.80;99.90;;;;;;5072449;28;19921;-78
2021/11/02 13:46:07;;;;;;;;;;;18.70;99.90;;;;;;5071978;28;19909;-78
2021/11/02 13:48:34;;;;;;;;;;;18.80;99.90;;;;;;5072734;28;19909;-78
2021/11/02 13:51:04;;;;;;;;;;;18.80;99.90;;;;;;5072564;28;19912;-80
2021/11/02 13:53:34;;;;;;;;;;;18.80;99.90;;;;;;5072556;28;20362;-80
2021/11/02 13:56:03;;;;;;;;;;;18.80;99.90;;;;;;5086504;28;20489;-79
2021/11/02 13:58:29;;;;;;;;;;;18.90;99.90;;;;;;5092077;28;19916;-76
2021/11/02 14:00:56;;;;;;;;;;;18.80;99.90;;;;;;5092294;28;20386;-78
2021/11/02 14:03:35;;;;;;;;;;;18.80;99.90;;;;;;5092710;28;20285;-79
2021/11/02 14:06:25;;;;;;;;;;;18.80;99.90;;;;;;5092607;28;19908;-80
2021/11/02 14:08:53;;;;;;;;;;;18.80;99.90;;;;;;5089962;28;20309;-79
2021/11/02 14:11:40;;;;;;;;;;;18.90;99.90;;;;;;5092445;28;19912;-78
2021/11/02 14:14:10;;;;;;;;;;;18.90;99.90;;;;;;5091953;28;19908;-78
2021/11/02 14:16:43;;;;;;;;;;;18.90;99.90;;;;;;5092521;28;19908;-77
2021/11/02 14:19:30;;;;;;;;;;;18.90;99.90;;;;;;5091955;28;19912;-79
2021/11/02 14:21:57;;;;;;;;;;;18.90;99.90;;;;;;5087321;28;19920;-79
2021/11/02 14:24:31;;;;;;;;;;;18.80;99.90;;;;;;5091908;28;19916;-80
2021/11/02 14:26:58;;;;;;;;;;;18.80;99.90;;;;;;5092219;28;19912;-80
2021/11/02 14:29:42;;;;;;;;;;;18.80;99.90;;;;;;5092238;28;19912;-79
2021/11/02 14:32:09;;;;;;;;;;;18.70;99.90;;;;;;5091871;28;19918;-80
2021/11/02 14:34:39;;;;;;;;;;;18.70;99.90;;;;;;5091655;28;20363;-79
2021/11/02 14:37:11;;;;;;;;;;;18.70;99.90;;;;;;5091705;28;19938;-79
2021/11/02 14:39:55;;;;;;;;;;;18.70;99.90;;;;;;5091697;28;19908;-79
2021/11/02 14:42:38;;;;;;;;;;;18.70;99.90;;;;;;5091156;28;19919;-79
2021/11/02 14:45:05;;;;;;;;;;;18.70;99.90;;;;;;5091447;28;20286;-80
2021/11/02 14:47:34;;;;;;;;;;;18.70;99.90;;;;;;5091004;28;19908;-80
2021/11/02 14:50:00;;;;;;;;;;;18.70;99.90;;;;;;5091142;28;19952;-78
2021/11/02 14:52:27;;;;;;;;;;;18.70;99.90;;;;;;5091600;28;19912;-80
2021/11/02 14:54:54;;;;;;;;;;;18.70;99.90;;;;;;5091336;28;19908;-79
2021/11/02 14:57:20;;;;;;;;;;;18.80;99.90;;;;;;5091038;28;19912;-80
2021/11/02 14:59:55;;;;;;;;;;;18.80;99.90;;;;;;5090717;28;19908;-79
2021/11/02 15:02:35;;;;;;;;;;;18.80;99.90;;;;;;5090294;28;20022;-79
2021/11/02 15:05:06;;;;;;;;;;;18.70;99.90;;;;;;5091070;28;19916;-78
2021/11/02 15:07:34;;;;;;;;;;;18.70;99.90;;;;;;5091230;28;20431;-81
2021/11/02 15:10:05;;;;;;;;;;;18.70;99.90;;;;;;5090725;28;19962;-80
2021/11/02 15:12:32;;;;;;;;;;;18.70;99.90;;;;;;5090617;28;19912;-78
2021/11/02 15:14:59;;;;;;;;;;;18.70;99.90;;;;;;5090992;28;19908;-79
2021/11/02 15:17:26;;;;;;;;;;;18.60;99.90;;;;;;5090958;28;19915;-79
2021/11/02 15:19:53;;;;;;;;;;;18.70;99.90;;;;;;5091100;28;19913;-80
2021/11/02 15:22:21;;;;;;;;;;;18.70;99.90;;;;;;5090865;28;19947;-80
2021/11/02 15:24:58;;;;;;;;;;;18.70;99.90;;;;;;5091335;28;19916;-80
2021/11/02 15:27:27;;;;;;;;;;;18.60;99.90;;;;;;5090735;28;19919;-75
2021/11/02 15:29:58;;;;;;;;;;;18.70;99.90;;;;;;5091079;28;19942;-79
2021/11/02 15:32:26;;;;;;;;;;;18.70;99.90;;;;;;5091001;28;19961;-79
2021/11/02 15:34:54;;;;;;;;;;;18.60;99.90;;;;;;5090868;28;19919;-78
2021/11/02 15:37:25;;;;;;;;;;;18.70;99.90;;;;;;5091141;28;19912;-80
2021/11/02 15:40:03;;;;;;;;;;;18.60;99.90;;;;;;5090506;28;19919;-80
2021/11/02 15:42:31;;;;;;;;;;;18.60;99.90;;;;;;5090456;28;19916;-79
2021/11/02 15:45:03;;;;;;;;;;;18.60;99.90;;;;;;5090710;28;19920;-79
2021/11/02 15:47:31;;;;;;;;;;;18.60;99.90;;;;;;5090602;28;19914;-80
2021/11/02 15:50:09;;;;;;;;;;;18.60;99.90;;;;;;5090997;28;19912;-77
2021/11/02 15:52:36;;;;;;;;;;;18.60;99.90;;;;;;5090854;28;19915;-77
2021/11/02 15:55:04;;;;;;;;;;;18.60;99.90;;;;;;5090727;28;19915;-80
2021/11/02 15:57:57;;;;;;;;;;;18.50;99.90;;;;;;5091300;28;19934;-81
2021/11/02 16:00:29;;;;;;;;;;;18.60;99.90;;;;;;5091521;28;19930;-80
2021/11/02 16:02:56;;;;;;;;;;;18.60;99.90;;;;;;5092896;28;19908;-81
2021/11/02 16:05:24;;;;;;;;;;;18.60;99.90;;;;;;5093076;28;20006;-80
2021/11/02 16:07:51;;;;;;;;;;;18.70;99.90;;;;;;5093182;28;20016;-80
2021/11/02 16:10:22;;;;;;;;;;;18.70;99.90;;;;;;5092701;28;19912;-80
2021/11/02 16:12:49;;;;;;;;;;;18.60;99.90;;;;;;5094516;28;19922;-79
2021/11/02 16:15:18;;;;;;;;;;;18.60;99.90;;;;;;5096833;28;20306;-80
2021/11/02 16:17:52;;;;;;;;;;;18.60;99.90;;;;;;5097197;28;20250;-81
2021/11/02 16:20:37;;;;;;;;;;;18.60;99.90;;;;;;5096211;28;19965;-80
2021/11/02 16:23:11;;;;;;;;;;;18.60;99.90;;;;;;5096632;28;19916;-79
2021/11/02 16:25:46;;;;;;;;;;;18.50;99.90;;;;;;5096614;28;20336;-79
2021/11/02 16:28:16;;;;;;;;;;;18.50;99.90;;;;;;5096294;28;19914;-80
2021/11/02 16:30:44;;;;;;;;;;;18.40;99.90;;;;;;5096571;28;20420;-81
2021/11/02 16:33:11;;;;;;;;;;;18.40;99.90;;;;;;5097389;28;19912;-81
2021/11/02 16:35:40;;;;;;;;;;;18.40;99.90;;;;;;5097894;28;19908;-80
2021/11/02 16:38:29;;;;;;;;;;;18.40;99.90;;;;;;5096808;28;19914;-80
2021/11/02 16:40:58;;;;;;;;;;;18.40;99.90;;;;;;5093390;28;20392;-80
2021/11/02 16:43:44;;;;;;;;;;;18.40;99.90;;;;;;5096625;28;19920;-80
2021/11/02 16:46:11;;;;;;;;;;;18.40;99.90;;;;;;5095717;28;19908;-80
2021/11/02 16:48:43;;;;;;;;;;;18.40;99.90;;;;;;5096261;28;20389;-80
2021/11/02 16:51:10;;;;;;;;;;;18.40;99.90;;;;;;5096229;28;19960;-80
2021/11/02 16:53:37;;;;;;;;;;;18.40;99.90;;;;;;5096288;28;19908;-81
2021/11/02 16:56:09;;;;;;;;;;;18.40;99.90;;;;;;5096039;28;20331;-81
2021/11/02 16:58:36;;;;;;;;;;;18.40;99.90;;;;;;5096145;28;19908;-79
2021/11/02 17:01:11;;;;;;;;;;;18.40;99.90;;;;;;5095888;28;19920;-80
2021/11/02 17:03:37;;;;;;;;;;;18.30;99.90;;;;;;5096000;28;19922;-76
2021/11/02 17:06:14;;;;;;;;;;;18.40;99.90;;;;;;5095523;28;20302;-80
2021/11/02 17:09:08;;;;;;;;;;;18.30;99.90;;;;;;5095580;28;19908;-80
2021/11/02 17:11:49;;;;;;;;;;;18.30;99.90;;;;;;5094589;28;19908;-78
2021/11/02 17:14:16;;;;;;;;;;;18.30;99.90;;;;;;5095277;28;20377;-81
2021/11/02 17:16:45;;;;;;;;;;;18.40;99.90;;;;;;5095367;28;19908;-81
2021/11/02 17:19:12;;;;;;;;;;;18.40;99.90;;;;;;5095046;28;19991;-80
2021/11/02 17:21:39;;;;;;;;;;;18.40;99.90;;;;;;5095008;28;19908;-81
2021/11/02 17:24:06;;;;;;;;;;;18.40;99.90;;;;;;5093969;28;19962;-81
2021/11/02 17:26:34;;;;;;;;;;;18.40;99.90;;;;;;5095284;28;19942;-81
2021/11/02 17:29:01;;;;;;;;;;;18.40;99.90;;;;;;5095733;28;20002;-78
2021/11/02 17:31:36;;;;;;;;;;;18.40;99.90;;;;;;5095025;28;19919;-80
2021/11/02 17:34:04;;;;;;;;;;;18.40;99.90;;;;;;5094879;28;19919;-80
2021/11/02 17:36:30;;;;;;;;;;;18.50;99.90;;;;;;5095024;28;20273;-79
2021/11/02 17:38:58;;;;;;;;;;;18.50;99.90;;;;;;5094866;28;19970;-79
2021/11/02 17:41:24;;;;;;;;;;;18.50;99.90;;;;;;5094987;28;20010;-80
2021/11/02 17:43:52;;;;;;;;;;;18.40;99.90;;;;;;5094438;28;19916;-81
2021/11/02 17:46:19;;;;;;;;;;;18.40;99.90;;;;;;5094553;28;19912;-80
2021/11/02 17:48:46;;;;;;;;;;;18.50;99.90;;;;;;5095071;28;19908;-79
2021/11/02 17:51:13;;;;;;;;;;;18.50;99.90;;;;;;5095428;28;19915;-80
2021/11/02 17:53:40;;;;;;;;;;;18.50;99.90;;;;;;5095099;28;19908;-80
2021/11/02 17:56:07;;;;;;;;;;;18.50;99.90;;;;;;5094379;28;20385;-81
2021/11/02 17:58:34;;;;;;;;;;;18.50;99.90;;;;;;5094526;28;19947;-80
2021/11/02 18:01:02;;;;;;;;;;;18.50;99.90;;;;;;5094749;28;19924;-80
2021/11/02 18:03:34;;;;;;;;;;;18.50;99.90;;;;;;5094933;28;19916;-81
2021/11/02 18:06:02;;;;;;;;;;;18.50;99.90;;;;;;5094207;28;19912;-81
2021/11/02 18:08:30;;;;;;;;;;;18.60;99.90;;;;;;5093939;28;20354;-80
2021/11/02 18:10:58;;;;;;;;;;;18.70;99.90;;;;;;5094527;28;20002;-80
2021/11/02 18:13:25;;;;;;;;;;;18.70;99.90;;;;;;5094132;28;20017;-81
2021/11/02 18:15:53;;;;;;;;;;;18.70;99.90;;;;;;5094117;28;20343;-79
2021/11/02 18:18:21;;;;;;;;;;;18.80;99.90;;;;;;5094330;28;19908;-81
2021/11/02 18:20:48;;;;;;;;;;;18.80;99.90;;;;;;5094827;28;19908;-80
2021/11/02 18:23:15;;;;;;;;;;;18.80;99.90;;;;;;5094234;28;19926;-81
2021/11/02 18:25:42;;;;;;;;;;;18.80;99.90;;;;;;5094285;28;19915;-80
2021/11/02 18:28:09;;;;;;;;;;;18.80;99.90;;;;;;5093929;28;19912;-81
2021/11/02 18:30:36;;;;;;;;;;;18.80;99.90;;;;;;5094308;28;19915;-78
2021/11/02 18:33:05;;;;;;;;;;;18.80;99.90;;;;;;5094820;28;19908;-78
2021/11/02 18:35:32;;;;;;;;;;;18.80;99.90;;;;;;5094139;28;20397;-79
2021/11/02 18:38:00;;;;;;;;;;;18.80;99.90;;;;;;5093858;28;19908;-81
2021/11/02 18:40:27;;;;;;;;;;;18.80;99.90;;;;;;5094177;28;19908;-80
2021/11/02 18:42:54;;;;;;;;;;;18.80;99.90;;;;;;5094018;28;19963;-81
2021/11/02 18:45:23;;;;;;;;;;;18.80;99.90;;;;;;5094044;28;19912;-81
2021/11/02 18:47:50;;;;;;;;;;;18.70;99.90;;;;;;5093752;28;19922;-80
2021/11/02 18:50:17;;;;;;;;;;;18.60;99.90;;;;;;5093531;28;19934;-81
2021/11/02 18:52:44;;;;;;;;;;;18.50;99.90;;;;;;5093605;28;19912;-78
2021/11/02 18:55:11;;;;;;;;;;;18.60;99.90;;;;;;5093337;28;20387;-80
2021/11/02 18:57:38;;;;;;;;;;;18.60;99.90;;;;;;5093092;28;19961;-81
2021/11/02 19:00:07;;;;;;;;;;;18.60;99.90;;;;;;5092727;28;19995;-80
2021/11/02 19:02:34;;;;;;;;;;;18.60;99.90;;;;;;5093530;28;19999;-81
2021/11/02 19:05:05;;;;;;;;;;;18.70;99.90;;;;;;5092362;28;20202;-81
2021/11/02 19:07:32;;;;;;;;;;;18.70;99.90;;;;;;5093576;28;19995;-79
2021/11/02 19:09:59;;;;;;;;;;;18.70;99.90;;;;;;5093216;28;20350;-81
2021/11/02 19:12:26;;;;;;;;;;;18.70;99.90;;;;;;5093278;28;19908;-80
2021/11/02 19:14:53;;;;;;;;;;;18.70;99.90;;;;;;5092938;28;19908;-81
2021/11/02 19:17:20;;;;;;;;;;;18.70;99.90;;;;;;5093385;28;19953;-80
2021/11/02 19:19:46;;;;;;;;;;;18.70;99.90;;;;;;5093078;28;19908;-81
2021/11/02 19:22:13;;;;;;;;;;;18.60;99.90;;;;;;5093001;28;19939;-81
2021/11/02 19:24:40;;;;;;;;;;;18.70;99.90;;;;;;5092877;28;20275;-80
2021/11/02 19:27:07;;;;;;;;;;;18.60;99.90;;;;;;5093046;28;20008;-81
2021/11/02 19:29:33;;;;;;;;;;;18.60;99.90;;;;;;5093393;28;19908;-78
2021/11/02 19:32:00;;;;;;;;;;;18.60;99.90;;;;;;5093027;28;19946;-79
2021/11/02 19:34:27;;;;;;;;;;;18.60;99.90;;;;;;5093013;28;19915;-80